x

9410840 - Santa Monica Pier (icac1) Weather Station

10:54 - Tue 28th Jun 2016 All times are PDT. -7 hours from GMT.

  • Wind
    7mph
  • Sea Temp 69°f
  • Luft Temp 66°f
  • Sea Pressure 1015mb
  • 9410840 - Santa Monica Pier
  • 9410840 - Santa Monica Pier

More Historic Weather Station data

Upgrade to MSW Pro to gain access to the past 30 days of data for over 8000 Wavebouys and Weather Stations around the globe.

Join Pro

Comparision Forecast

View Surf forecast
   
Di 06/28 10:54 7
mph
1015mb 69f 66f
10:48 6 7 mph 1015.1mb 69f 66f
10:42 6 8 mph 1015mb 69f 66f
10:36 7 8 mph 1014.9mb 69f 66f
10:30 6 7 mph 1014.9mb 69f 66f
10:24 6 7 mph 1014.9mb 69f 66f
10:18 6
mph
1015mb 69f 66f
10:12 6 7 mph 1015mb 69f 66f
10:00 5 6 mph 1015mb 69f 66f
9:54 3 5 mph 1015mb 69f 66f
9:48 3 5 mph 1015mb 69f 66f
9:42 3 5 mph 1015.1mb 69f 66f
9:36 2
mph
1015.1mb 69f 66f
9:30 1 2 mph 1015.1mb 69f 66f
9:24  -  1 mph 1015.1mb 69f 67f
9:18 1 2 mph 1015mb 69f 66f
9:12  -  2 mph 1015mb 69f 66f
9:06  -  2 mph 1015mb 69f 66f
9:00  -  1 mph 1014.9mb 69f 66f
8:54  -  1 mph 1014.8mb 69f 66f
8:48  -  3 mph 1014.7mb 69f 66f
8:42 2 5 mph 1014.6mb 69f -
8:36 2 5 mph 1014.5mb 69f -
8:30 5 7 mph 1014.4mb 69f 65f
8:24 5 6 mph 1014.3mb 69f 65f
8:18 6 10 mph 1014.2mb 69f 65f
8:12 9 10 mph 1014.1mb 69f 65f
8:06 7 9 mph 1014mb 69f 65f
8:00 6 8 mph 1014.3mb 69f 65f
7:54 5 6 mph 1014.4mb 69f 65f
7:48 6
mph
1014.5mb 69f 65f
7:42 2 3 mph 1014.6mb 69f 65f
7:36 2 3 mph 1014.6mb 69f 65f
7:30 2 3 mph 1014.7mb 69f 65f
7:24 2 3 mph 1014.6mb 69f 65f
7:18 1 3 mph 1014.6mb 69f 65f
7:12 3 5 mph 1014.6mb 69f 65f
7:06 2 5 mph 1014.6mb 69f 65f
7:00 3 5 mph 1014.5mb 69f 65f
6:54 3
mph
1014.5mb 69f 65f
6:48 3
mph
1014.5mb 69f 65f
6:42  -  mph 1014.5mb 69f 65f
6:36  -  mph 1014.5mb 69f 65f
6:30 2 5 mph 1014.4mb 69f 65f
6:24 2 5 mph 1014.4mb 69f 65f
6:18 3 5 mph 1014.4mb 69f 65f
6:12 2 3 mph 1014.4mb 69f 65f
6:06 1 2 mph 1014.4mb 69f 65f
6:00  -  1 mph 1014.4mb 68f 65f
5:54 1 3 mph 1014.2mb 68f 65f
5:48 3 5 mph 1014.2mb 69f 65f
5:42 3 5 mph 1014.2mb 68f 65f
5:36 2 5 mph 1014mb 68f 65f
5:30 3 5 mph 1014mb 68f 65f
5:24 3 5 mph 1013.9mb 68f 65f
5:18 2 5 mph 1013.9mb 68f 65f
5:12 2 3 mph 1013.8mb 68f 65f
5:06 2 3 mph 1013.7mb 68f 65f
5:00 2 3 mph 1013.7mb 68f 65f
4:54 3 5 mph 1013.7mb 68f 65f
4:48 3 5 mph 1013.7mb 68f 65f
4:42 3 5 mph 1013.6mb 68f 65f
4:36 5 6 mph 1013.6mb 68f 65f
4:30 3 5 mph 1013.7mb 68f 65f
4:24 5 6 mph 1013.7mb 68f 65f
4:18 3 5 mph 1013.6mb 68f 65f
4:12 2 3 mph 1013.6mb 68f 65f
4:06 1 2 mph 1013.7mb 68f 65f
4:00 1 3 mph 1013.7mb 69f -
3:54  -  3 mph 1013.7mb 68f -
3:48 3 5 mph 1013.6mb 68f -
3:42 1 3 mph 1013.5mb 68f -
3:36 1
mph
1013.6mb 68f -
3:30  -  1 mph 1013.6mb 68f 65f
3:24 1 2 mph 1013.5mb 68f 65f
3:18 2 3 mph 1013.5mb 68f 65f
3:12 2
mph
1013.6mb 68f 65f
3:06 2 3 mph 1013.5mb 68f 65f
3:00 2 3 mph 1013.4mb 69f 65f
2:54  -  1 mph 1013.5mb 69f 65f
2:48 1 2 mph 1013.5mb 69f 65f
2:42  -  1 mph 1013.5mb 69f 65f
2:36 2 3 mph 1013.5mb 69f 65f
2:30 2 5 mph 1013.5mb 69f 65f
2:24 3
mph
1013.4mb 69f 65f
2:18 2 3 mph 1013.4mb 69f 66f
2:12  -  2 mph 1013.5mb 69f 66f
2:06 1 2 mph 1013.5mb 69f 66f
2:00  -  1 mph 1013.5mb 69f 66f
1:54  -  1 mph 1013.6mb 69f 66f
1:48 1
mph
1013.5mb 69f 66f
1:42  -  2 mph 1013.5mb 69f 66f
1:36 1 2 mph 1013.5mb 69f 66f
1:30 1 3 mph 1013.4mb 69f 66f
1:24 3 5 mph 1013.3mb 69f 66f
1:18 3 6 mph 1013.3mb 69f 66f
1:12 3 5 mph 1013.3mb 69f 66f
1:06 3
mph
1013.4mb 69f 66f
1:00  -  1 mph 1013.6mb 69f 66f
12:54  -  2 mph 1013.6mb 69f 66f
12:48 2 5 mph 1013.6mb 69f 66f
12:42 2 3 mph 1013.7mb 69f 66f
12:36 2 3 mph 1013.6mb 69f 66f
12:30 2
mph
1013.6mb 69f 66f
12:24 2 3 mph 1013.7mb 69f 66f
12:18 2 3 mph 1013.7mb 69f 66f
12:12 2
mph
1013.6mb 69f 66f
12:06 1 3 mph 1013.6mb 69f 66f
12:00 1 2 mph 1013.6mb 70f 66f
Mo 06/27 11:54 3
mph
1013.6mb 70f 66f
11:48 2
mph
1013.6mb 70f 66f
11:42 2
mph
1013.7mb - -
11:36 2 3 mph 1013.7mb - -
11:30 3
mph
1013.7mb 70f 66f
11:24 2
mph
1013.7mb 70f 66f
11:18  -  2 mph 1013.8mb 70f 66f
11:12 1 3 mph 1013.8mb 70f 66f
11:06 2 3 mph 1013.7mb 70f 66f
11:00 3
mph
1013.7mb 70f 66f
10:54 3 5 mph 1013.7mb 70f 66f
10:48 3 5 mph 1013.7mb 70f 66f
10:42 5
mph
- - 66f
10:36 5
mph
- - 66f
10:30 3 5 mph 1013.8mb 70f 66f
10:24 3 5 mph 1013.8mb 70f 66f
10:18 5
mph
1013.5mb 70f 66f
10:12 5 6 mph 1013.6mb 70f 66f
10:06 5 6 mph 1013.5mb 70f 66f
10:00 5 8 mph 1013.5mb 70f 66f
9:54 7 9 mph 1013.2mb 70f 66f
9:48 9 10 mph 1012.9mb 70f 66f
9:42 8 9 mph 1013mb 70f 66f
9:36 6 9 mph 1013.4mb 70f 66f
9:30 8 9 mph 1013.2mb 70f 66f
9:24 8 9 mph 1013.2mb 70f 66f
9:18 9 10 mph 1013.1mb 70f 66f
9:12 8 10 mph 1013.1mb 70f 67f
9:06 7 8 mph 1013.2mb 70f 67f
9:00 8 10 mph 1013.1mb 70f 67f
8:54 9 10 mph 1013mb 70f 67f
8:48 9 10 mph 1012.9mb 70f 67f
8:42  -  mph 1013mb 70f 67f
8:36  -  mph 1012.9mb 70f 67f
8:30 8 9 mph 1012.9mb 70f 67f
8:24 7 9 mph 1012.9mb 70f 67f
8:18 7 8 mph 1012.9mb 70f 67f
8:12 7 8 mph 1012.9mb 70f 67f
8:06 8 9 mph 1012.8mb 70f 67f
8:00  -  mph 1012.7mb 70f 67f
7:54  -  mph 1012.7mb 70f 67f
7:48  -  mph 1012.6mb 70f 67f
7:42  -  mph 1012.6mb 70f -
7:36  -  mph 1012.5mb 70f -
7:30  -  mph 1012.3mb 70f -
7:24  -  mph 1012.3mb 70f -
7:18  -  mph 1012.5mb 70f -
7:12  -  mph 1012.4mb - 68f
7:06  -  mph 1012.5mb - 68f
7:00  -  mph 1012.7mb 70f -
6:54  -  mph 1012.9mb 70f -
6:48  -  mph 1012.9mb 70f -
6:42  -  mph 1013mb - -
6:36  -  mph 1012.9mb - -
6:30  -  mph 1012.9mb 70f -
6:24  -  mph 1012.7mb 69f -
6:18  -  mph 1012.8mb 69f -
6:12  -  mph 1012.7mb 69f -
6:06  -  mph 1012.7mb 69f -
6:00  -  mph 1012.5mb 69f 69f
5:54  -  mph 1012.5mb 69f 69f
5:48  -  mph 1012.5mb 69f 69f
5:42  -  mph 1012.5mb 69f -
5:36  -  mph 1012.4mb 69f -
5:30  -  mph 1012.5mb 69f -
5:24  -  mph 1012.6mb 69f -
5:18  -  mph 1012.7mb 69f -
5:12 9
mph
1012.7mb 69f -
5:06 9
mph
1012.7mb 69f -
5:00  -  mph 1012.8mb 69f -
4:54  -  mph 1012.9mb 69f -
4:48 7 8 mph - - -
4:42 8 9 mph 1012.9mb - -
4:36 7 9 mph 1013mb - -
4:30  -  mph - 69f -
4:24  -  mph - 69f -
4:18  -  mph - 69f -
4:12  -  mph 1013mb 69f -
4:06  -  mph 1012.9mb 69f -
4:00  -  mph 1013mb 70f -
3:54  -  mph 1013mb 70f -
3:48  -  mph 1013mb 70f -
3:42  -  mph - 70f -
3:36  -  mph - 70f -
3:30  -  mph 1013mb 70f 69f
3:24  -  mph 1013.1mb 69f 69f
3:18  -  mph 1013.2mb 69f 69f
3:12  -  mph 1013.2mb 69f 69f
3:06  -  mph 1013.2mb 69f 69f
3:00  -  mph 1013.2mb 69f -
2:54  -  mph 1013.2mb 69f -
2:48  -  mph 1013.2mb 69f -
2:42  -  mph 1013.2mb 70f 68f
2:36  -  mph 1013.3mb 70f 68f
2:30 8 9 mph 1013.4mb 70f 68f
2:24 8 9 mph 1013.5mb 70f 68f
2:18 7 8 mph 1013.6mb 69f 68f
2:12 7 8 mph 1013.7mb 69f 68f
2:06 7 8 mph 1013.7mb 69f 68f
2:00 8
mph
1013.7mb 69f 68f
1:54 7 8 mph 1013.8mb 69f 67f
1:48 6 7 mph 1013.9mb 69f 67f
1:42 6 7 mph 1013.9mb 69f 68f
1:36 6 7 mph 1014mb 69f 67f
1:30 6 7 mph 1014mb 69f 67f
1:24 7
mph
1014mb 69f 67f
1:18 6 8 mph 1014.1mb 69f 67f
1:12 6 8 mph 1014.1mb 69f 67f
1:06 6 7 mph 1014.2mb 69f 67f
1:00 7 8 mph 1014.1mb 69f 67f
12:54 7 8 mph 1014.2mb 69f 67f
12:48 6 8 mph 1014.1mb 69f 67f
12:42 7 8 mph 1014.1mb 69f 67f
12:36 7 8 mph 1014.1mb 69f 66f
12:30 7 8 mph 1014.1mb 69f 66f
12:24 7 8 mph 1014.2mb 69f 66f
12:18 6 7 mph 1014.3mb 69f 66f
12:12 6 7 mph 1014.3mb 69f 66f
12:00 6 7 mph 1014.2mb 69f 66f
11:54 6
mph
1014.2mb 69f 66f
11:48 6 8 mph 1014.1mb 69f 65f
11:42  -  mph 1014mb 69f 66f
11:36  -  mph 1013.9mb 69f 66f
11:30 7 8 mph 1013.9mb 69f 65f
11:24 6 8 mph 1014mb 69f 65f
11:18 7 8 mph 1014mb 69f 65f
11:12 7 9 mph 1014.1mb 68f 65f
11:06 6 7 mph 1014.1mb 68f 65f
11:00 6 7 mph 1014.1mb 68f 65f
10:54 6
mph
1014.1mb 68f 65f
10:48 6 7 mph 1014.1mb 68f 65f
10:42 5 6 mph 1014.1mb 68f 65f
10:36 3 6 mph 1014.2mb 68f 65f
10:30 5 6 mph 1014.1mb 68f 65f
10:24 3 5 mph 1014mb 68f 65f
10:18 3 5 mph 1013.9mb 68f 65f
10:12 2 5 mph 1014mb 68f 65f
10:06 5
mph
1014mb 68f 65f
10:00 2 3 mph 1014mb 68f 65f
9:54 2
mph
1013.9mb 68f 65f
9:48 1 3 mph 1013.8mb 68f 65f
9:42 1 3 mph 1013.9mb 68f 65f
9:36 1 2 mph 1013.9mb 68f 65f
9:30  -  2 mph 1013.7mb 68f 65f
9:24 2
mph
1013.7mb 68f 65f
9:18 2
mph
1013.8mb 68f 65f
9:12  -  2 mph 1013.8mb 68f 65f
9:06 1 2 mph 1013.9mb 68f 65f
9:00 2 3 mph 1013.9mb 68f 65f
8:54 1 5 mph 1013.9mb 68f 65f
8:48 2 3 mph 1013.9mb 68f 65f
8:42 2 5 mph 1014mb 68f 65f
8:36 2 3 mph 1014mb 68f 65f
8:30 3 5 mph 1014.2mb 68f 64f
8:24 2 5 mph 1014.2mb 68f 64f
8:18 3 6 mph 1014.3mb 68f 64f
8:12 6 7 mph 1014.2mb 68f 64f
8:06 5 6 mph 1014.2mb 68f 64f
8:00 5 6 mph 1014.2mb 68f 64f
7:54 3 6 mph 1014.3mb 68f 64f
7:48 3 5 mph 1014.3mb 68f 64f
7:42 5 6 mph 1014.2mb 68f 64f
7:36 5 6 mph 1014.1mb 68f 64f
7:30 5 6 mph 1014.1mb 68f 64f
7:24 2 3 mph 1014mb 68f 64f
7:18  -  5 mph 1013.9mb 68f 64f
7:12 3 5 mph 1013.8mb 68f 64f
7:06 5 6 mph 1013.6mb 68f 64f
7:00 5 7 mph 1013.4mb 68f 64f
6:54 5 6 mph 1013.4mb 68f 64f
6:48 3 6 mph 1013.4mb 68f 64f
6:42 5
mph
1013.3mb 68f 64f
6:36 5 6 mph 1013.3mb 68f 64f
6:30 3 5 mph 1013.1mb 68f 64f
6:24 2 5 mph 1013mb 68f 63f
6:18 3 6 mph 1013mb 68f 63f
6:12 3 5 mph 1013mb 68f 63f
6:06 3 6 mph 1012.9mb 68f 64f
6:00 3 6 mph 1012.9mb 68f 64f
5:54 3 6 mph 1012.8mb 68f 64f
5:48 3 7 mph 1012.7mb 68f 64f
5:42 5 8 mph 1012.7mb 68f 63f
5:36 6 7 mph 1012.6mb 68f 64f
5:30 6 8 mph 1012.6mb 68f 64f
5:24 6 8 mph 1012.7mb 68f 64f
5:18 6 7 mph 1012.7mb 68f 64f
5:12 5 7 mph 1012.7mb 68f 64f
5:06 6
mph
1012.8mb 67f 64f
5:00 5 7 mph 1012.8mb 67f 64f
4:54 5 6 mph 1012.8mb 67f 64f
4:48 5 6 mph 1012.8mb 67f 64f
4:42 5 6 mph 1012.8mb 67f 64f
4:36 5 6 mph 1012.8mb 67f 64f
4:30 6 7 mph 1012.7mb 68f 64f
4:24 6 7 mph 1012.6mb 68f 64f
4:18 6 8 mph 1012.5mb 68f 64f
4:12 6 8 mph 1012.4mb 68f 64f
4:06 7 8 mph 1012.4mb 68f 64f
4:00 7 8 mph 1012.3mb 68f 65f
3:54 7 8 mph 1012.3mb 68f 65f
3:48 6 7 mph 1012.3mb 67f 65f
3:42 6
mph
1012.3mb 67f 65f
3:36 3 5 mph 1012.3mb 67f 65f
3:30 3 5 mph 1012.1mb 67f 65f
3:24 3 5 mph 1011.9mb 67f 65f
3:18 2 5 mph 1011.8mb 67f 65f
3:12 5 6 mph 1011.7mb 68f 65f
3:06 3 8 mph 1011.6mb 68f 65f
3:00 6 7 mph 1011.6mb 68f 64f
2:54 6 7 mph 1011.8mb 68f 65f
2:48 6
mph
1011.8mb 68f 65f
2:42 3 5 mph 1012mb 68f 65f
2:36 3 5 mph 1012mb 68f 65f
2:30 2 3 mph 1012.1mb 68f 64f
2:24 2 3 mph 1012mb 68f 64f
2:18 1 2 mph 1012mb 68f 64f
2:12 2 3 mph 1012mb 68f 64f
2:06 2 3 mph 1012mb 68f 64f
2:00 2 3 mph 1012mb 68f 65f
1:54 2
mph
1012.1mb 68f 65f
1:48 2
mph
1012.2mb 67f 65f
1:42 1
mph
1012.3mb 67f 65f
1:36 1
mph
1012.3mb 67f 65f
1:30  -  1 mph 1012.4mb 67f 65f
1:24  -  2 mph 1012.4mb 67f 64f
1:18 1 2 mph 1012.5mb 68f 65f
1:12  -  1 mph 1012.5mb 68f 64f
1:06  -  1 mph 1012.5mb 68f 64f
1:00  -  2 mph 1012.5mb 68f 64f
12:54 2 3 mph 1012.5mb 68f 64f
12:48 2 3 mph 1012.6mb 68f 64f
12:42 2 3 mph 1012.7mb 68f 64f
12:36 2 3 mph 1012.7mb 68f 64f
12:30 2
mph
1012.8mb 68f 64f
12:24 2
mph
1012.8mb 68f 64f
12:18 2 3 mph 1012.9mb 68f 64f
12:12 2 3 mph 1012.9mb 68f 64f
12:06 3 5 mph 1013mb 68f 64f
12:00 3
mph
1013mb 68f 64f
So 06/26 11:54 3 5 mph 1013mb 68f 64f
11:48 3 5 mph 1013mb 68f 64f
11:42 3 5 mph 1013mb 68f -
11:36 2 3 mph 1013mb 68f -
11:30 2 3 mph 1012.8mb 68f 64f
11:24 2 3 mph 1012.8mb 68f 64f
11:18 2 3 mph 1012.8mb 68f 64f
11:12 2 3 mph 1012.8mb 68f 64f
11:06 2 5 mph 1012.9mb 68f 64f
11:00 2 5 mph 1012.9mb 68f 64f
10:54  -  2 mph 1013mb 68f 64f
10:48 1 2 mph 1013mb 69f 64f
10:42  -  2 mph 1013.1mb - -
10:36 2
mph
1013.1mb - -
10:30 2 3 mph 1013.2mb 69f 64f
10:24 2 3 mph 1013.2mb 69f 64f
10:18 2 3 mph 1013.2mb 69f 64f
10:12 3 5 mph 1013.2mb 69f 64f
10:06 5 6 mph 1013.2mb 69f 64f
10:00 2 3 mph 1013.1mb 69f 64f
9:54 2
mph
1013.1mb 69f 64f
9:48 1 3 mph 1013.1mb 69f 64f
9:42 3 5 mph 1013mb 69f 64f
9:36 2 3 mph 1012.9mb 69f 64f
9:30 3
mph
1012.8mb 69f 64f
9:24 2 5 mph 1012.8mb 69f 64f
9:18 1 3 mph 1012.7mb 69f 64f
9:12 2 6 mph 1012.7mb 69f 64f
9:06 3 5 mph 1012.7mb 69f 64f
9:00  -  2 mph 1012.8mb 69f 64f
8:54 3 5 mph 1012.7mb 69f 64f
8:48 3 5 mph - - -
8:42 5 6 mph 1012.7mb 69f 64f
8:36 3 6 mph 1012.7mb 69f 64f
8:30 5 6 mph 1012.7mb 69f 64f
8:24 6
mph
1012.6mb 69f 64f
8:18 5 7 mph 1012.5mb 69f 64f
8:12 5 7 mph 1012.5mb 69f 65f
8:06 5 7 mph 1012.5mb 69f 64f
8:00  -  mph 1012.5mb 69f 65f
7:54  -  mph 1012.5mb 69f 64f
7:48  -  mph 1012.5mb 69f -
7:42  -  mph 1012.5mb 69f -
7:36  -  mph 1012.5mb 69f -
7:30  -  mph 1012.5mb 69f -
7:24  -  mph 1012.5mb 69f -
7:18 5 6 mph - - -
7:12 6 9 mph 1012.4mb 69f 65f
7:06 7 8 mph 1012.4mb 69f 65f
7:00  -  mph 1012.4mb 69f -
6:54  -  mph 1012.3mb 69f -
6:48  -  mph 1012.3mb 69f -
6:42  -  mph 1012.2mb 69f -
6:36  -  mph 1012.2mb 69f -
6:30  -  mph 1012.2mb 69f -
6:24  -  mph 1012.1mb 69f -
6:18 9 10 mph - - -
6:12 9 11 mph 1011.9mb 69f 65f
6:06 9 11 mph 1011.9mb 69f 65f
6:00  -  mph 1011.9mb 69f -
5:54  -  mph 1011.9mb 69f -
5:48  -  mph 1011.8mb - -
5:42  -  mph 1011.9mb 69f 65f
5:36  -  mph 1011.9mb 69f 65f
5:30  -  mph - 69f 65f
5:24  -  mph - 69f 65f
5:18  -  mph 1011.8mb 69f 65f
5:12  -  mph 1011.8mb 69f 65f
5:06  -  mph 1011.8mb 69f 65f
5:00  -  mph 1011.9mb 69f -
4:54  -  mph 1011.9mb 69f -
4:48  -  mph 1012mb 69f -
4:42  -  mph 1012mb - -
4:36  -  mph 1012mb - -
4:30 13 14 mph 1012.1mb - -
4:24 13 14 mph 1012mb - -
4:18 10 14 mph 1012mb - -
4:12  -  mph 1012mb 69f 65f
4:00 13 14 mph 1012mb 69f -
3:54 13 14 mph 1012.1mb 69f -
3:48 11 14 mph 1012.1mb 69f -
3:42  -  mph 1012.1mb 69f 65f
3:36  -  mph 1012.1mb 69f 65f
3:30  -  mph 1012.1mb 69f 66f
3:24  -  mph 1012.2mb 69f 66f
3:18  -  mph 1012.3mb 69f 66f
3:12  -  mph 1012.4mb 69f 66f
3:06  -  mph 1012.3mb 69f 65f
3:00  -  mph 1012.4mb 69f -
2:54  -  mph 1012.3mb 69f -
2:48  -  mph 1012.4mb 69f -
2:42  -  mph 1012.4mb 69f 66f
2:36  -  mph 1012.4mb 69f 65f
2:30 11 14 mph 1012.4mb 68f 65f
2:24 11 13 mph 1012.5mb 68f 65f
2:18 10 13 mph 1012.6mb 68f 66f
2:12 11 13 mph 1012.6mb 68f 65f
2:06 10 11 mph 1012.7mb 68f 65f
2:00 10 11 mph 1012.7mb 68f 65f
1:54 9 10 mph 1012.7mb 69f 65f
1:48 9 11 mph 1012.8mb 69f 65f
1:42 9 11 mph 1012.8mb 69f 65f
1:36 10 11 mph 1012.8mb 69f 65f
1:30 8 10 mph 1012.9mb 69f 65f
1:24 9 10 mph 1013mb 69f 65f
1:18 8 10 mph 1013mb 68f 65f
1:12 9
mph
1013.1mb 68f 65f
1:06 8 9 mph 1013.2mb 68f 65f
1:00 9 11 mph 1013.1mb 68f 65f
12:54 9 11 mph 1013.1mb 68f 65f
12:48 9 10 mph 1013.1mb 68f 65f
12:42 9 11 mph 1013.1mb 68f 65f
12:36 9 11 mph 1013.1mb 68f 65f
12:30 9 11 mph 1013mb 68f 65f
12:24 10 13 mph 1012.9mb 68f 65f
12:18 8 10 mph 1012.9mb 68f 65f
12:12 8 10 mph 1013mb 68f 65f
12:06 8 10 mph 1013mb 68f 65f
12:00 9 10 mph 1013mb 68f 65f
11:54 8 9 mph 1013mb 68f 65f
11:48 6 9 mph 1013.1mb 68f 65f
11:42 7 9 mph 1013.2mb 68f 65f
11:36 7 8 mph 1013.2mb 68f 65f
11:30 7 9 mph 1013.1mb 68f 65f
11:24 8 9 mph 1013.1mb 68f 65f
11:18 7 9 mph 1013.1mb 68f 65f
11:12 7 9 mph 1013.1mb 68f 65f
11:06 7 8 mph 1013.1mb 68f 65f
11:00 6 8 mph 1013.1mb 68f 65f
10:54 7 8 mph 1013.1mb 68f 65f
10:48 7 8 mph 1013mb 68f 65f
10:42 7 8 mph 1012.9mb 68f 65f
10:36 7 8 mph 1012.9mb 68f 65f
10:30 7 8 mph 1012.8mb 68f 65f
10:24 8 11 mph 1012.7mb 68f 64f
10:18 9 10 mph 1012.7mb 68f 65f
10:12 9 10 mph 1012.7mb 68f 64f
10:06 9 10 mph 1012.7mb 68f 64f
10:00 8 9 mph 1012.7mb 68f 64f
9:54 7 8 mph 1012.7mb 68f 64f
9:48 7 8 mph - - -
9:42 6 7 mph 1012.7mb 68f 64f
9:36 6 8 mph 1012.6mb 68f 64f
9:30 6 8 mph 1012.6mb 68f 64f
9:24 6 9 mph 1012.6mb 68f 64f
9:18 6 9 mph 1012.5mb 68f 64f
9:12 8 9 mph 1012.5mb 68f 64f
9:06 7 8 mph 1012.5mb 68f 64f
9:00 8 9 mph 1012.4mb 68f 64f
8:54 8 9 mph 1012.4mb 68f 64f
8:48 8 9 mph 1012.4mb 68f 65f
8:42 7 8 mph 1012.3mb 68f 65f
8:36 7 8 mph 1012.2mb 68f 66f
8:30 6
mph
1012.2mb 68f 66f
8:24 5
mph
1012.1mb 68f 66f
8:18 5 6 mph 1012.1mb 68f 66f
8:12 5 6 mph 1012.1mb 68f 66f
8:06 3 5 mph 1012mb 68f 66f
8:00 5
mph
1012mb 68f 66f
7:54 5
mph
1011.9mb 68f 66f
7:48 3 5 mph 1011.9mb 68f 66f
7:42 3
mph
1011.9mb 68f 66f
7:36 2 3 mph 1012mb 68f 67f
7:30 3 5 mph 1012mb 68f 66f
7:24 3 5 mph 1012mb 68f 66f
7:18 3 5 mph 1012.1mb 68f 66f
7:12 2 3 mph 1012.1mb 68f 66f
7:06 2
mph
1012.1mb 68f 66f
7:00 2
mph
1012.1mb 68f 66f
6:54 1 3 mph 1012.1mb 68f 66f
6:48 3
mph
1012mb 68f 65f
6:42 2 3 mph 1012mb 68f 65f
6:36 3
mph
1011.9mb 68f 65f
6:30 2 3 mph 1011.9mb 67f 65f
6:24 2
mph
1011.9mb 67f 65f
6:18 1 2 mph 1011.8mb 68f 64f
6:12 1 3 mph 1011.7mb 68f 64f
6:06 3 5 mph 1011.5mb 67f 64f
6:00 3 6 mph 1011.3mb 67f 64f
5:54 3 5 mph 1011.2mb 67f 64f
5:48 2 5 mph 1011.2mb 68f 64f
5:42 3 6 mph 1011.1mb 68f 64f
5:36 3 5 mph 1011.2mb 68f 64f
5:30 3 5 mph 1011.1mb 68f 64f
5:24 2 3 mph 1011.1mb 68f 64f
5:18 2 3 mph 1011mb 68f 64f
5:12 2
mph
1010.8mb 67f 64f
5:06 1 2 mph 1010.8mb 67f 65f
5:00 1 2 mph 1010.8mb 67f 65f
4:54 1 2 mph 1010.8mb 67f 64f
4:48 2
mph
1010.8mb 67f 64f
4:42 2 3 mph 1011mb 67f 64f
4:36 1 2 mph 1011mb 68f 64f
4:30  -  2 mph 1011.1mb 68f 64f
4:24 1 2 mph 1011.2mb 68f 64f
4:18 1 2 mph 1011.2mb 68f 64f
4:12 1 3 mph 1011.2mb 68f 65f
4:06 2
mph
1011.2mb 68f 65f
4:00 1 2 mph 1011.3mb 67f 65f
3:54 2
mph
1011.2mb 67f 65f
3:48 2
mph
1011.3mb 68f 65f
3:42 1 2 mph 1011.3mb 68f 65f
3:36 1 2 mph 1011.3mb 68f 65f
3:30 1 2 mph 1011.3mb 68f 65f
3:24 1 2 mph 1011.3mb 68f 65f
3:18 2 3 mph 1011.3mb 68f 65f
3:12 3
mph
1011.3mb 68f 65f
3:00 3 5 mph 1011.3mb 68f 65f
2:54 3 6 mph 1011.3mb 68f 65f
2:48 5
mph
1011.4mb 68f 65f
2:42 3 5 mph 1011.3mb 68f 65f
2:36 2 5 mph 1011.4mb 68f 65f
2:30 3 5 mph 1011.3mb 68f 65f
2:24 3 6 mph 1011.3mb 68f 65f
2:18 3 6 mph 1011.4mb 68f 65f
2:12 3 6 mph 1011.5mb 68f 64f
2:06 5 6 mph 1011.5mb 68f 65f
2:00 5 6 mph 1011.5mb 68f 65f
1:54 5 6 mph 1011.6mb 68f 65f
1:48 3 5 mph 1011.6mb 68f 65f
1:42 3 5 mph 1011.6mb 68f 65f
1:36 3
mph
1011.6mb 68f 65f
1:30 2 3 mph 1011.7mb 68f 65f
1:24 2 3 mph 1011.7mb 68f 65f
1:18 3
mph
1011.7mb 68f 65f
1:12 2 3 mph 1011.8mb 68f 65f
1:06 2 5 mph 1011.8mb 68f 65f
1:00 3 5 mph 1011.8mb 68f 65f
12:54 3
mph
1011.8mb 68f 65f
12:48 2 3 mph 1011.9mb 68f 65f
12:42 2
mph
1011.9mb 68f 65f
12:36 1 2 mph 1012mb 68f 65f
12:30 2
mph
1012mb 68f -
12:24 2
mph
1012mb 68f -
12:18 1 2 mph 1011.9mb 68f -
12:12 2
mph
1012mb 68f 66f
12:06 2 3 mph 1012mb 68f 66f
12:00 2
mph
1012mb 68f 66f
Sa 06/25 11:54 2
mph
1012.1mb 68f 66f
11:48 2
mph
1012mb 68f 66f
11:42 1 2 mph 1012.1mb 68f -
11:36 1 2 mph 1012mb 68f -
11:30 2
mph
1012mb 68f 66f
11:24 2
mph
1012mb 68f 66f
11:18 2
mph
1011.9mb 68f 66f
11:12 2 3 mph 1012mb 68f 66f
11:06 2 3 mph 1012mb 68f 66f
11:00  -  mph 1011.9mb 68f 66f
10:54  -  mph 1011.8mb 68f 66f
10:48  -  mph 1011.7mb 68f 66f
10:42  -  mph 1011.7mb 68f 66f
10:36  -  mph 1011.6mb 68f 66f
10:30 2
mph
1011.6mb 68f 66f
10:24 1 2 mph 1011.5mb 68f 66f
10:18 1 2 mph 1011.4mb 68f 66f
10:12 1 2 mph 1011.3mb 68f 66f
10:06 2 3 mph 1011.3mb 68f 66f
10:00 2 3 mph 1011.3mb 68f 66f
9:54 2 3 mph 1011.2mb 68f 66f
9:48 3 5 mph 1011.3mb 68f 66f
9:42 3 5 mph 1011.3mb 68f 66f
9:36 3 5 mph 1011.2mb 68f 66f
9:30 3 5 mph 1011.2mb 68f 66f
9:24 5 6 mph 1011.1mb 68f 66f
9:18 5
mph
1011mb 68f 66f
9:12 5 6 mph 1011mb 68f 66f
9:06 6
mph
1011mb 68f 66f
9:00 6
mph
1011mb 68f 66f
8:54 6
mph
1010.9mb 68f 66f
8:48 5 6 mph 1010.8mb 68f 66f
8:42  -  mph 1010.8mb 68f 66f
8:36  -  mph 1010.7mb 68f 66f
8:30 5 6 mph 1010.7mb 68f 66f
8:24 6
mph
1010.7mb 68f 66f
8:18 5 6 mph 1010.7mb 68f 66f
8:12 5 6 mph 1010.7mb 68f 66f
8:06 5 6 mph 1010.6mb 68f 66f
8:00  -  mph 1010.6mb 68f 66f
7:54  -  mph 1010.6mb 69f 66f
7:48  -  mph 1010.5mb 69f -
7:42  -  mph 1010.5mb 69f -
7:36  -  mph 1010.5mb 69f -
7:30  -  mph 1010.6mb 69f 66f
7:24  -  mph 1010.5mb 69f 67f
7:18  -  mph 1010.5mb 69f 67f
7:12 6
mph
- 69f 67f
7:06 6 7 mph - 69f 67f
7:00  -  mph 1010.5mb 69f 67f
6:54  -  mph 1010.5mb 69f 67f
6:48  -  mph 1010.5mb 69f 67f
6:42  -  mph 1010.5mb 69f -
6:36  -  mph 1010.5mb 69f -
6:30  -  mph 1010.5mb 69f 67f
6:24  -  mph 1010.5mb 69f 67f
6:18  -  mph 1010.5mb 69f 67f
6:12  -  mph 1010.5mb 69f 67f
6:06  -  mph 1010.5mb 69f 67f
6:00  -  mph 1010.5mb 68f -
5:54  -  mph 1010.4mb 68f -
5:48 8 9 mph - - -
5:42 9 10 mph 1010.4mb 68f -
5:36 9 10 mph 1010.4mb 68f -
5:30 9 10 mph - - -
5:24 9 10 mph - - -
5:18  -  mph 1010.4mb 68f 67f
5:12  -  mph 1010.4mb 68f 67f
5:06  -  mph 1010.5mb 68f 67f
5:00  -  mph - 68f 67f
4:54  -  mph - 68f 67f
4:48 8 9 mph - - -
4:42 8 9 mph 1010.7mb 68f -
4:36 8 9 mph 1010.7mb 68f -
4:30  -  mph 1010.8mb 68f -
4:24  -  mph 1010.8mb 68f -
4:18  -  mph 1010.8mb 68f 66f
4:12  -  mph 1010.8mb 69f 66f
4:06  -  mph 1010.8mb 68f 66f
4:00  -  mph 1010.8mb 68f -
3:54  -  mph 1010.9mb 68f -
3:48  -  mph 1010.9mb 68f -
3:42  -  mph - 68f -
3:36  -  mph - 68f -
3:30  -  mph 1011mb 68f -
3:24  -  mph 1011.1mb 68f -
3:18  -  mph 1011.1mb 68f -
3:12  -  mph 1011.1mb 68f 66f
3:06  -  mph 1011.1mb 68f 66f
3:00  -  mph - 68f -
2:54  -  mph - 68f -
2:48  -  mph - 68f -
2:42  -  mph 1011.3mb 68f 66f
2:36  -  mph 1011.4mb 68f 66f
2:30 9 10 mph 1011.5mb 68f 66f
2:24 9 11 mph 1011.5mb 68f 66f
2:18 9 10 mph 1011.5mb 68f 66f
2:12 9 10 mph 1011.5mb 68f 66f
2:06 9 10 mph 1011.6mb 68f 66f
2:00 9 10 mph 1011.6mb 68f 66f
1:54 10
mph
1011.6mb 68f 66f
1:48 10
mph
1011.6mb 68f 66f
1:42 9 10 mph 1011.6mb 68f 66f
1:36 9 11 mph 1011.6mb 67f 66f
1:30 10
mph
1011.7mb 68f 65f
1:24 9 10 mph 1011.7mb 68f 66f
1:18 10
mph
1011.7mb 68f 65f
1:12 9 10 mph 1011.8mb 68f 66f
1:06 9 10 mph 1011.8mb 68f 65f
1:00 9 10 mph 1011.8mb 68f 65f
12:54 9 10 mph 1011.8mb 68f 65f
12:48 9 10 mph 1011.9mb 68f 65f
12:42 9 10 mph 1011.9mb 68f 65f
12:36 8 9 mph 1011.9mb 68f 65f
12:30 9 10 mph 1012mb 67f 65f
12:24 9
mph
1011.9mb 68f 65f
12:18 8 9 mph 1012mb 68f 65f
12:12 8
mph
1012mb 67f 65f
12:06 8 9 mph 1012mb 67f 65f
12:00 8 9 mph 1012mb 67f 65f
11:54 8 9 mph 1012mb 67f 65f
11:48 8 9 mph 1012mb 67f 65f
11:42 8 9 mph 1012mb 67f 65f
11:36 9 10 mph 1012mb 67f 65f
11:30 9
mph
1012.1mb 67f 65f
11:24 8 9 mph 1012.1mb 67f 65f
11:18 8 9 mph 1012.1mb 67f 65f
11:12 8 9 mph 1012.1mb 67f 65f
11:06 8
mph
1012.1mb 67f 65f
11:00 8 9 mph - 67f 65f
10:54 8 9 mph - 67f 65f
10:48 8 9 mph - - -
10:42 8 9 mph 1012.1mb 67f 65f
10:36 8 9 mph 1012.1mb 67f 65f
10:30 8 10 mph 1012mb 66f 65f
10:24 8 9 mph 1012mb 66f 65f
10:18 8 9 mph 1012mb 66f -
10:12 8 9 mph 1012mb 66f -
10:06 7 8 mph 1012.1mb 66f -
10:00  -  mph 1012.1mb 66f 65f
9:54  -  mph 1012.1mb 66f 65f
9:48  -  mph 1012.1mb 66f 65f
9:42 6 7 mph 1012.1mb 66f 65f
9:36 6 7 mph 1012.1mb 66f 65f
9:30 6 7 mph 1012.1mb 66f 65f
9:24 6
mph
1012.2mb 66f 65f
9:18 6
mph
1012.2mb 66f 65f
9:12 5 6 mph 1012.3mb 66f 65f
9:06 5 6 mph 1012.3mb 66f 65f
9:00 5 6 mph 1012.3mb 66f 65f
8:54 6
mph
1012.2mb 66f 65f
8:48 6 7 mph 1012.2mb 66f 65f
8:42 6 7 mph 1012.2mb 66f 65f
8:36 6
mph
1012.1mb 66f 65f
8:30 5 7 mph 1012mb 66f 65f
8:24 6
mph
1012mb 66f 65f
8:18 6
mph
1012mb 66f 65f
8:12 6
mph
1012mb 66f 65f
8:06 5 6 mph 1011.9mb 66f 65f
8:00 5 6 mph 1011.9mb 66f 65f
7:54 5 6 mph 1011.8mb 66f 65f
7:48 5 6 mph 1011.8mb 66f 65f
7:42 5
mph
1011.8mb 66f 65f
7:36 5
mph
1011.7mb 66f 65f
7:30 3
mph
1011.7mb 66f 65f
7:24 2 3 mph 1011.7mb 66f 65f
7:18 2 5 mph 1011.6mb 66f 65f
7:12 3 5 mph 1011.6mb 66f 65f
7:06 3 5 mph 1011.6mb 66f 65f
7:00 3 5 mph 1011.6mb 66f 65f
6:54 2 5 mph 1011.6mb 66f 65f
6:48 3 5 mph 1011.6mb 66f 65f
6:42 3
mph
1011.5mb 66f 65f
6:36 2
mph
1011.5mb 66f 65f
6:30  -  2 mph 1011.5mb 66f 65f
6:24 1 3 mph 1011.5mb 66f 65f
6:18 1 3 mph 1011.4mb 66f 65f
6:12 3 5 mph 1011.5mb 66f 65f
6:06 3 5 mph 1011.5mb 66f 65f
6:00 2 5 mph 1011.4mb 66f 65f
5:54 3 5 mph 1011.4mb 66f 65f
5:48 2 3 mph - - -
5:42 2 3 mph 1011.4mb 66f 65f
5:36  -  2 mph 1011.3mb 66f 65f
5:30 1 3 mph 1011.3mb 66f 65f
5:24 2 3 mph 1011.3mb 66f 65f
5:18 2 3 mph 1011.3mb 66f 65f
5:12 2 3 mph 1011.3mb 66f 65f
5:06  -  2 mph 1011.3mb 66f 65f
5:00 1 3 mph 1011.2mb 65f 65f
4:54  -  2 mph 1011.2mb 65f 65f
4:48  -  1 mph 1011.2mb 65f 65f
4:42  -  1 mph 1011.2mb 65f 65f
4:36  -  2 mph 1011.2mb 65f 65f
4:30 3 5 mph 1011.2mb 65f 65f
4:24 3 5 mph 1011.2mb 65f 65f
4:18 5
mph
1011.3mb 65f 65f
4:12 5
mph
1011.3mb 65f 65f
4:06 3
mph
1011.3mb 65f 65f
4:00 3 5 mph 1011.3mb 65f 65f
3:54 3 5 mph 1011.3mb 65f 65f
3:48 5 6 mph 1011.4mb 65f 65f
3:42 5
mph
1011.4mb 65f 65f
3:36 3 5 mph 1011.4mb 65f 65f
3:30 3 5 mph 1011.4mb 65f 65f
3:24 3 5 mph 1011.4mb 65f 64f
3:18 5 6 mph 1011.4mb 65f 64f
3:12 5 6 mph 1011.4mb 65f 64f
3:06 5 6 mph 1011.5mb 65f 64f
3:00 5 6 mph 1011.4mb 65f 65f
2:54 2 5 mph 1011.4mb 65f 65f
2:48 6 7 mph 1011.5mb 65f 64f
2:42 5 6 mph 1011.6mb 65f 64f
2:36 5 6 mph 1011.5mb 65f 64f
2:30 5 6 mph 1011.5mb 65f 64f
2:24 5
mph
1011.6mb 65f 65f
2:18 5 6 mph 1011.6mb 65f 64f
2:12 3
mph
1011.6mb 66f 65f
2:06 2 3 mph 1011.6mb 66f 64f
2:00 2 3 mph 1011.7mb 66f 65f
1:54  -  1 mph 1011.8mb 66f 65f
1:48  -  2 mph 1011.8mb 66f 65f
1:42 2 6 mph 1011.8mb 66f 65f
1:36 3 7 mph 1011.9mb 66f 65f
1:30 5 6 mph 1011.9mb 66f 65f
1:24 5 6 mph 1012mb 66f 64f
1:18 5
mph
1012mb 66f 64f
1:12 3 5 mph 1012mb 66f 64f
1:06 3 5 mph 1012.1mb 66f 64f
1:00  -  1 mph 1012.1mb 66f 64f
12:54  -  1 mph 1012.1mb 66f 64f
12:48  -  1 mph - - -
12:42  -  1 mph 1012.1mb 66f 64f
12:36  -  1 mph 1012.1mb 66f 64f
12:30 1
mph
1012.2mb 66f 64f
12:24  -  1 mph 1012.2mb 66f 64f
12:18  -  1 mph 1012.2mb 66f 64f
12:12  -  1 mph 1012.2mb 66f 64f
12:06 1 2 mph 1012.3mb 66f 64f
12:00 2 3 mph 1012.3mb 66f 64f
Fr 06/24 11:54 2
mph
1012.4mb 66f 64f
11:48 2 3 mph 1012.4mb 66f 64f
11:42 2 3 mph 1012.4mb 66f 64f
11:36 2 3 mph 1012.4mb 66f 64f
11:30 2 3 mph 1012.4mb 66f 64f
11:24 2 3 mph 1012.4mb 66f 64f
11:18 2 3 mph 1012.3mb 66f 64f
11:12  -  mph 1012.4mb 66f 64f
11:06  -  mph 1012.4mb 66f 64f
11:00 2 3 mph 1012.5mb 66f 64f
10:54 2 3 mph 1012.5mb 67f 64f
10:48 3
mph
1012.5mb 67f 64f
10:42  -  mph 1012.6mb 67f 64f
10:36  -  mph 1012.6mb 67f 64f
10:30 2
mph
1012.4mb 67f 64f
10:24 1 2 mph 1012.5mb 67f 64f
10:18 2
mph
1012.4mb 67f 64f
10:12 2 3 mph 1012.4mb 67f 64f
10:06 1 2 mph 1012.4mb 67f 64f
10:00 2
mph
1012.3mb 67f 64f
9:54 2 3 mph 1012.3mb 67f 64f
9:48 2
mph
1012.3mb 67f 64f
9:42 2
mph
1012.3mb 67f 64f
9:36 2 3 mph 1012.3mb 67f 64f
9:30 2 3 mph 1012.3mb 67f 64f
9:24 2 3 mph 1012.2mb 67f 64f
9:18 2
mph
1012.1mb 67f 64f
9:12 2 3 mph 1012mb 67f 64f
9:06 1 3 mph 1012mb 67f 64f
9:00 2 3 mph 1011.9mb 67f 65f
8:54 2
mph
1011.9mb 67f 65f
8:48 2
mph
1011.9mb 67f 65f
8:42  -  mph 1011.8mb 67f -
8:36  -  mph 1011.8mb 67f -
8:30 2 3 mph 1011.8mb 67f 65f
8:24 3
mph
1011.8mb 67f 65f
8:18 3
mph
- - -
8:12 3 5 mph 1011.7mb 67f 65f
8:06 3
mph
1011.8mb 67f 65f
8:00  -  mph 1011.7mb 67f -
7:54  -  mph 1011.7mb 67f -
7:48 2 3 mph 1011.7mb 67f -
7:42 2 3 mph 1011.6mb 67f -
7:36 2
mph
1011.6mb 67f -
7:30  -  mph 1011.7mb 67f -
7:24  -  mph 1011.6mb 66f -
7:18  -  mph 1011.7mb 66f -
7:12  -  mph - 67f 66f
7:06  -  mph - 67f 66f
7:00 5
mph
- 67f -
6:54 2 5 mph - 67f -